createdAt,value
2019-04-16T00:00:33.228Z,43.00
2019-04-16T00:03:01.887Z,42.23
2019-04-16T00:05:41.276Z,41.63
2019-04-16T00:08:26.717Z,38.60
2019-04-16T00:10:49.775Z,47.13
2019-04-16T00:13:23.101Z,40.03
2019-04-16T00:15:51.887Z,43.03
2019-04-16T00:18:20.662Z,39.57
2019-04-16T00:20:54.030Z,43.00
2019-04-16T00:23:33.589Z,43.67
2019-04-16T00:26:03.456Z,43.47
2019-04-16T00:28:32.154Z,39.77
2019-04-16T00:31:01.031Z,40.50
2019-04-16T00:33:29.725Z,40.50
2019-04-16T00:35:59.392Z,42.87
2019-04-16T00:38:40.056Z,43.73
2019-04-16T00:41:00.759Z,39.47
2019-04-16T00:43:28.792Z,38.93
2019-04-16T00:45:57.577Z,37.17
2019-04-16T00:48:26.137Z,39.47
2019-04-16T00:50:55.909Z,42.20
2019-04-16T00:53:24.677Z,41.10
2019-04-16T00:55:53.337Z,38.53
2019-04-16T00:58:22.032Z,39.00
2019-04-16T01:00:50.702Z,41.60
2019-04-16T01:03:19.742Z,41.03
2019-04-16T01:05:48.602Z,36.43
2019-04-16T01:08:17.316Z,37.17
2019-04-16T01:10:46.045Z,38.90
2019-04-16T01:13:14.761Z,37.97
2019-04-16T01:15:43.506Z,39.03
2019-04-16T01:18:12.086Z,40.33
2019-04-16T01:20:43.263Z,35.67
2019-04-16T01:23:10.991Z,36.27
2019-04-16T01:25:39.659Z,39.30
2019-04-16T01:28:12.750Z,40.07
2019-04-16T01:30:43.034Z,36.47
2019-04-16T01:33:14.630Z,37.17
2019-04-16T01:35:51.230Z,41.37
2019-04-16T01:38:28.053Z,40.90
2019-04-16T01:41:03.524Z,40.40
2019-04-16T01:43:32.214Z,35.37
2019-04-16T01:46:02.201Z,41.03
2019-04-16T01:48:31.455Z,43.03
2019-04-16T01:51:00.053Z,37.67
2019-04-16T01:53:28.683Z,41.90
2019-04-16T01:55:58.402Z,38.20
2019-04-16T01:58:27.450Z,38.07
2019-04-16T02:00:56.138Z,37.30
2019-04-16T02:03:24.854Z,41.23
2019-04-16T02:05:54.857Z,39.73
2019-04-16T02:08:24.047Z,41.93
2019-04-16T02:10:52.705Z,37.77
2019-04-16T02:13:21.336Z,39.00
2019-04-16T02:15:50.579Z,38.63
2019-04-16T02:18:20.313Z,37.70
2019-04-16T02:20:49.097Z,35.63
2019-04-16T02:23:17.741Z,38.23
2019-04-16T02:25:48.460Z,39.47
2019-04-16T02:28:16.765Z,38.77
2019-04-16T02:30:45.362Z,37.40
2019-04-16T02:33:14.017Z,38.83
2019-04-16T02:35:42.676Z,37.30
2019-04-16T02:38:13.627Z,37.47
2019-04-16T02:40:42.089Z,40.90
2019-04-16T02:43:10.658Z,39.50
2019-04-16T02:45:39.331Z,42.87
2019-04-16T02:48:15.263Z,36.90
2019-04-16T02:50:43.115Z,42.13
2019-04-16T02:53:30.729Z,42.47
2019-04-16T02:56:01.138Z,38.00
2019-04-16T02:58:34.318Z,40.47
2019-04-16T03:01:15.412Z,39.43
2019-04-16T03:03:45.730Z,40.47
2019-04-16T03:06:14.546Z,39.37
2019-04-16T03:08:43.566Z,42.47
2019-04-16T03:11:13.790Z,43.87
2019-04-16T03:13:42.597Z,38.00
2019-04-16T03:16:15.962Z,41.30
2019-04-16T03:18:47.504Z,40.60
2019-04-16T03:21:16.685Z,38.43
2019-04-16T03:23:45.412Z,40.70
2019-04-16T03:26:17.512Z,43.73
2019-04-16T03:28:44.744Z,44.77
2019-04-16T03:31:19.418Z,38.33
2019-04-16T03:33:50.403Z,46.07
2019-04-16T03:36:14.517Z,44.00
2019-04-16T03:38:43.206Z,45.17
2019-04-16T03:41:11.822Z,40.60
2019-04-16T03:43:40.468Z,42.07
2019-04-16T03:46:12.119Z,44.50
2019-04-16T03:48:39.485Z,44.20
2019-04-16T03:51:08.070Z,43.50
2019-04-16T03:53:37.178Z,38.20
2019-04-16T03:56:05.826Z,46.93
2019-04-16T03:58:35.546Z,38.67
2019-04-16T04:01:05.079Z,46.03
2019-04-16T04:03:33.709Z,41.77
2019-04-16T04:06:03.601Z,36.87
2019-04-16T04:08:32.721Z,40.37
2019-04-16T04:11:01.362Z,38.00
2019-04-16T04:13:30.090Z,40.87
2019-04-16T04:16:01.435Z,39.13
2019-04-16T04:18:29.190Z,35.67
2019-04-16T04:20:57.875Z,40.73
2019-04-16T04:23:28.695Z,37.53
2019-04-16T04:25:56.746Z,39.53
2019-04-16T04:28:25.321Z,36.30
2019-04-16T04:30:53.895Z,38.40
2019-04-16T04:33:41.597Z,41.20
2019-04-16T04:36:10.547Z,41.10
2019-04-16T04:38:39.478Z,39.73
2019-04-16T04:41:08.319Z,40.10
2019-04-16T04:43:37.061Z,41.07
2019-04-16T04:46:05.881Z,36.00
2019-04-16T04:48:34.639Z,39.87
2019-04-16T04:51:06.930Z,40.53
2019-04-16T04:53:33.832Z,37.60
2019-04-16T04:56:02.550Z,34.60
2019-04-16T04:58:34.198Z,33.30
2019-04-16T05:01:02.291Z,37.93
2019-04-16T05:03:48.246Z,37.50
2019-04-16T05:06:18.545Z,37.17
2019-04-16T05:08:47.310Z,40.73
2019-04-16T05:11:16.952Z,37.73
2019-04-16T05:13:45.861Z,39.80
2019-04-16T05:16:14.537Z,40.00
2019-04-16T05:18:43.280Z,37.70
2019-04-16T05:21:11.942Z,39.23
2019-04-16T05:23:40.787Z,38.47
2019-04-16T05:26:09.961Z,41.43
2019-04-16T05:28:44.518Z,38.43
2019-04-16T05:31:09.177Z,37.40
2019-04-16T05:33:38.188Z,38.90
2019-04-16T05:36:07.092Z,38.03
2019-04-16T05:38:35.724Z,38.57
2019-04-16T05:41:13.078Z,33.37
2019-04-16T05:43:34.768Z,36.13
2019-04-16T05:46:08.301Z,37.23
2019-04-16T05:48:33.780Z,35.70
2019-04-16T05:51:02.444Z,36.13
2019-04-16T05:53:31.086Z,32.97
2019-04-16T05:56:01.335Z,35.43
2019-04-16T05:58:30.747Z,34.90
2019-04-16T06:01:18.857Z,30.83
2019-04-16T06:03:47.498Z,33.33
2019-04-16T06:06:16.188Z,36.60
2019-04-16T06:08:44.830Z,38.90
2019-04-16T06:11:26.565Z,36.63
2019-04-16T06:13:45.324Z,33.20
2019-04-16T06:16:33.980Z,33.43
2019-04-16T06:19:11.428Z,38.07
2019-04-16T06:21:42.040Z,32.30
2019-04-16T06:24:29.045Z,37.00
2019-04-16T06:27:08.596Z,32.90
2019-04-16T06:30:01.409Z,30.73
2019-04-16T06:32:36.495Z,35.73
2019-04-16T06:35:16.072Z,35.60
2019-04-16T06:37:51.983Z,34.03
2019-04-16T06:40:38.793Z,32.10
2019-04-16T06:43:12.024Z,33.97
2019-04-16T06:45:45.342Z,33.60
2019-04-16T06:48:24.672Z,33.77
2019-04-16T06:50:55.337Z,33.77
2019-04-16T06:53:25.628Z,38.73
2019-04-16T06:55:56.035Z,36.10
2019-04-16T06:58:27.907Z,37.80
2019-04-16T07:00:58.193Z,36.27
2019-04-16T07:03:28.522Z,32.37
2019-04-16T07:06:04.841Z,32.43
2019-04-16T07:08:51.276Z,31.90
2019-04-16T07:11:21.496Z,33.03
2019-04-16T07:13:50.082Z,33.27
2019-04-16T07:16:18.691Z,36.63
2019-04-16T07:18:47.258Z,30.53
2019-04-16T07:21:17.549Z,34.30
2019-04-16T07:23:47.087Z,33.37
2019-04-16T07:26:15.893Z,31.90
2019-04-16T07:28:58.525Z,33.37
2019-04-16T07:31:33.415Z,30.90
2019-04-16T07:33:58.994Z,32.77
2019-04-16T07:36:41.360Z,36.20
2019-04-16T07:39:28.285Z,30.77
2019-04-16T07:42:10.278Z,30.23
2019-04-16T07:44:36.459Z,33.80
2019-04-16T07:47:09.777Z,33.30
2019-04-16T07:49:40.427Z,39.10
2019-04-16T07:52:13.552Z,31.03
2019-04-16T07:54:59.913Z,29.27
2019-04-16T07:57:28.980Z,32.93
2019-04-16T07:59:57.667Z,35.00
2019-04-16T08:02:26.344Z,32.07
2019-04-16T08:04:54.960Z,31.53
2019-04-16T08:07:23.615Z,34.37
2019-04-16T08:09:52.261Z,34.20
2019-04-16T08:12:29.782Z,34.03
2019-04-16T08:14:51.239Z,31.23
2019-04-16T08:17:19.891Z,28.93
2019-04-16T08:19:49.367Z,31.30
2019-04-16T08:22:18.592Z,31.77
2019-04-16T08:24:48.838Z,33.00
2019-04-16T08:27:19.074Z,30.73
2019-04-16T08:29:47.894Z,29.73
2019-04-16T08:32:17.048Z,31.07
2019-04-16T08:34:45.765Z,32.43
2019-04-16T08:37:14.433Z,30.63
2019-04-16T08:39:43.093Z,29.43
2019-04-16T08:42:11.820Z,32.10
2019-04-16T08:44:40.493Z,29.10
2019-04-16T08:47:12.138Z,33.13
2019-04-16T08:49:39.539Z,31.83
2019-04-16T08:52:10.175Z,30.57
2019-04-16T08:54:38.613Z,35.77
2019-04-16T08:57:07.291Z,32.30
2019-04-16T08:59:35.955Z,29.17
2019-04-16T09:02:04.721Z,40.47
2019-04-16T09:04:34.641Z,46.27
2019-04-16T09:07:11.092Z,39.63
2019-04-16T09:09:38.439Z,65.33
2019-04-16T09:12:09.375Z,54.10
2019-04-16T09:14:40.097Z,43.67
2019-04-16T09:17:10.515Z,38.33
2019-04-16T09:19:41.087Z,44.63
2019-04-16T09:22:15.770Z,66.00
2019-04-16T09:24:42.016Z,37.67
2019-04-16T09:27:15.064Z,36.07
2019-04-16T09:29:51.328Z,42.77
2019-04-16T09:32:37.779Z,43.47
2019-04-16T09:35:20.038Z,39.00
2019-04-16T09:37:50.161Z,39.43
2019-04-16T09:40:36.806Z,34.17
2019-04-16T09:43:16.641Z,32.40
2019-04-16T09:45:38.077Z,32.83
2019-04-16T09:48:06.749Z,30.67
2019-04-16T09:50:35.666Z,32.10
2019-04-16T09:53:04.382Z,31.93
2019-04-16T09:55:33.062Z,33.00
2019-04-16T09:58:06.080Z,35.10
2019-04-16T10:00:38.758Z,28.03
2019-04-16T10:03:11.551Z,35.87
2019-04-16T10:05:40.297Z,28.57
2019-04-16T10:08:09.649Z,31.70
2019-04-16T10:10:39.484Z,35.13
2019-04-16T10:13:08.761Z,36.00
2019-04-16T10:15:37.602Z,34.53
2019-04-16T10:18:06.328Z,33.70
2019-04-16T10:20:34.998Z,35.80
2019-04-16T10:23:05.711Z,32.77
2019-04-16T10:25:34.694Z,34.27
2019-04-16T10:28:05.669Z,34.83
2019-04-16T10:30:39.540Z,34.37
2019-04-16T10:33:08.364Z,33.37
2019-04-16T10:35:37.242Z,35.37
2019-04-16T10:38:07.875Z,32.13
2019-04-16T10:40:41.286Z,36.43
2019-04-16T10:43:11.564Z,32.87
2019-04-16T10:45:53.473Z,33.57
2019-04-16T10:48:26.442Z,35.47
2019-04-16T10:51:15.502Z,38.23
2019-04-16T10:53:57.266Z,34.93
2019-04-16T10:56:44.220Z,39.77
2019-04-16T10:59:30.748Z,35.00
2019-04-16T11:02:13.535Z,35.73
2019-04-16T11:04:45.411Z,37.00
2019-04-16T11:07:15.673Z,35.03
2019-04-16T11:09:44.339Z,34.67
2019-04-16T11:12:19.656Z,37.53
2019-04-16T11:14:46.272Z,37.57
2019-04-16T11:17:15.449Z,33.67
2019-04-16T11:19:44.193Z,38.80
2019-04-16T11:22:12.955Z,35.47
2019-04-16T11:24:43.458Z,37.87
2019-04-16T11:27:12.028Z,37.50
2019-04-16T11:29:41.927Z,39.33
2019-04-16T11:32:12.706Z,40.10
2019-04-16T11:34:41.334Z,39.73
2019-04-16T11:37:09.916Z,38.40
2019-04-16T11:39:38.567Z,36.53
2019-04-16T11:42:08.734Z,38.27
2019-04-16T11:44:37.460Z,38.67
2019-04-16T11:47:07.285Z,36.50
2019-04-16T11:49:35.890Z,39.03
2019-04-16T11:52:04.805Z,41.60
2019-04-16T11:54:33.736Z,37.53
2019-04-16T11:57:02.693Z,44.93
2019-04-16T11:59:31.530Z,37.37
2019-04-16T12:02:01.831Z,42.33
2019-04-16T12:04:48.508Z,40.70
2019-04-16T12:07:36.928Z,42.57
2019-04-16T12:10:26.787Z,38.27
2019-04-16T12:13:03.864Z,42.30
2019-04-16T12:15:43.578Z,37.70
2019-04-16T12:18:22.842Z,40.63
2019-04-16T12:20:55.895Z,35.33
2019-04-16T12:23:26.187Z,39.50
2019-04-16T12:26:02.691Z,36.27
2019-04-16T12:28:33.335Z,39.20
2019-04-16T12:31:03.911Z,37.73
2019-04-16T12:33:36.973Z,38.93
2019-04-16T12:36:13.239Z,39.30
2019-04-16T12:38:42.965Z,38.20
2019-04-16T12:41:31.578Z,39.53
2019-04-16T12:44:23.939Z,38.33
2019-04-16T12:46:51.974Z,36.83
2019-04-16T12:49:38.635Z,37.83
2019-04-16T12:52:11.918Z,36.63
2019-04-16T12:54:41.009Z,41.80
2019-04-16T12:57:14.954Z,37.03
2019-04-16T12:59:43.180Z,36.33
2019-04-16T13:02:13.915Z,36.33
2019-04-16T13:04:59.790Z,34.57
2019-04-16T13:07:34.438Z,34.57
2019-04-16T13:10:08.115Z,33.13
2019-04-16T13:12:38.430Z,31.23
2019-04-16T13:15:25.895Z,34.13
2019-04-16T13:18:02.103Z,33.70
2019-04-16T13:20:35.135Z,35.37
2019-04-16T13:23:11.110Z,37.40
2019-04-16T13:25:57.712Z,34.97
2019-04-16T13:28:26.773Z,37.07
2019-04-16T13:30:55.436Z,35.63
2019-04-16T13:33:24.160Z,34.00
2019-04-16T13:35:52.837Z,35.83
2019-04-16T13:38:23.127Z,35.00
2019-04-16T13:40:53.171Z,34.13
2019-04-16T13:43:26.294Z,34.03
2019-04-16T13:45:57.931Z,36.90
2019-04-16T13:48:30.893Z,32.40
2019-04-16T13:51:03.856Z,33.73
2019-04-16T13:53:39.959Z,33.30
2019-04-16T13:56:28.446Z,33.23
2019-04-16T13:59:11.135Z,30.00
2019-04-16T14:01:45.203Z,36.53
2019-04-16T14:04:13.516Z,31.67
2019-04-16T14:06:45.909Z,32.83
2019-04-16T14:09:13.263Z,33.97
2019-04-16T14:11:42.437Z,34.23
2019-04-16T14:14:11.126Z,33.47
2019-04-16T14:16:40.874Z,38.30
2019-04-16T14:19:10.526Z,33.17
2019-04-16T14:21:39.137Z,32.33
2019-04-16T14:24:11.586Z,32.77
2019-04-16T14:26:38.141Z,35.53
2019-04-16T14:29:07.744Z,34.73
2019-04-16T14:31:36.575Z,32.23
2019-04-16T14:34:07.168Z,37.87
2019-04-16T14:36:35.926Z,31.37
2019-04-16T14:39:14.593Z,32.57
2019-04-16T14:41:48.756Z,35.00
2019-04-16T14:44:15.792Z,35.77
2019-04-16T14:46:44.603Z,32.23
2019-04-16T14:49:15.190Z,32.47
2019-04-16T14:51:43.612Z,33.70
2019-04-16T14:54:16.653Z,34.97
2019-04-16T14:56:55.794Z,33.37
2019-04-16T14:59:40.766Z,32.33
2019-04-16T15:02:19.622Z,33.50
2019-04-16T15:05:03.488Z,32.07
2019-04-16T15:07:46.030Z,32.60
2019-04-16T15:10:28.268Z,32.67
2019-04-16T15:13:04.139Z,33.77
2019-04-16T15:15:34.437Z,32.77
2019-04-16T15:18:07.937Z,33.67
2019-04-16T15:20:54.906Z,32.67
2019-04-16T15:23:34.082Z,34.27
2019-04-16T15:26:16.804Z,35.47
2019-04-16T15:28:56.203Z,35.77
2019-04-16T15:31:41.175Z,31.50
2019-04-16T15:34:14.025Z,33.30
2019-04-16T15:36:44.315Z,31.73
2019-04-16T15:39:14.920Z,30.00
2019-04-16T15:41:46.290Z,41.00
2019-04-16T15:44:31.717Z,33.63
2019-04-16T15:47:16.590Z,34.73
2019-04-16T15:49:55.825Z,35.77
2019-04-16T15:52:28.699Z,34.47
2019-04-16T15:55:02.062Z,34.57
2019-04-16T15:57:48.344Z,38.23
2019-04-16T16:00:28.198Z,33.27
2019-04-16T16:02:58.521Z,34.53
2019-04-16T16:05:37.343Z,33.20
2019-04-16T16:08:10.600Z,33.43
2019-04-16T16:10:45.146Z,31.63
2019-04-16T16:13:11.348Z,33.80
2019-04-16T16:15:41.100Z,32.23
2019-04-16T16:18:09.938Z,35.73
2019-04-16T16:20:38.502Z,34.33
2019-04-16T16:23:08.517Z,36.67
2019-04-16T16:25:41.084Z,36.23
2019-04-16T16:28:08.099Z,37.73
2019-04-16T16:30:36.896Z,34.60
2019-04-16T16:33:05.581Z,35.90
2019-04-16T16:35:35.025Z,37.30
2019-04-16T16:38:04.204Z,36.30
2019-04-16T16:40:32.891Z,34.20
2019-04-16T16:43:06.419Z,39.03
2019-04-16T16:45:51.734Z,36.73
2019-04-16T16:48:22.089Z,41.20
2019-04-16T16:50:51.778Z,43.50
2019-04-16T16:53:25.320Z,37.70
2019-04-16T16:55:55.452Z,42.40
2019-04-16T16:58:25.802Z,38.97
2019-04-16T17:01:02.283Z,41.33
2019-04-16T17:03:38.043Z,40.40
2019-04-16T17:06:08.369Z,38.53
2019-04-16T17:08:37.104Z,39.00
2019-04-16T17:11:16.127Z,34.77
2019-04-16T17:13:36.063Z,35.53
2019-04-16T17:16:04.796Z,35.83
2019-04-16T17:18:33.564Z,35.93
2019-04-16T17:21:02.758Z,36.67
2019-04-16T17:23:31.369Z,36.60
2019-04-16T17:25:59.964Z,39.80
2019-04-16T17:28:28.646Z,37.20
2019-04-16T17:30:57.404Z,38.03
2019-04-16T17:33:26.126Z,38.50
2019-04-16T17:35:54.839Z,33.90
2019-04-16T17:38:23.428Z,34.13
2019-04-16T17:40:57.985Z,33.63
2019-04-16T17:43:38.572Z,33.37
2019-04-16T17:46:08.898Z,33.13
2019-04-16T17:48:39.189Z,40.73
2019-04-16T17:51:26.102Z,35.00
2019-04-16T17:54:08.579Z,39.57
2019-04-16T17:56:56.417Z,33.17
2019-04-16T17:59:30.222Z,34.53
2019-04-16T18:02:16.782Z,35.60
2019-04-16T18:05:02.124Z,34.83
2019-04-16T18:07:38.489Z,35.33
2019-04-16T18:10:18.894Z,37.27
2019-04-16T18:13:00.910Z,39.90
2019-04-16T18:15:46.264Z,36.60
2019-04-16T18:18:25.799Z,37.43
2019-04-16T18:21:14.204Z,38.53
2019-04-16T18:23:53.258Z,33.57
2019-04-16T18:26:39.649Z,38.33
2019-04-16T18:29:12.992Z,39.00
2019-04-16T18:31:43.289Z,35.03
2019-04-16T18:34:30.054Z,34.47
2019-04-16T18:37:16.674Z,35.23
2019-04-16T18:40:05.912Z,37.07
2019-04-16T18:42:35.720Z,33.30
2019-04-16T18:45:22.738Z,34.53
2019-04-16T18:48:02.696Z,36.43
2019-04-16T18:50:27.977Z,35.67
2019-04-16T18:52:54.194Z,40.57
2019-04-16T18:55:22.803Z,36.53
2019-04-16T18:57:52.348Z,33.47
2019-04-16T19:00:31.774Z,36.07
2019-04-16T19:02:59.146Z,35.40
2019-04-16T19:05:27.800Z,39.07
2019-04-16T19:08:00.211Z,37.80
2019-04-16T19:10:26.892Z,37.43
2019-04-16T19:12:55.907Z,41.53
2019-04-16T19:15:24.627Z,35.57
2019-04-16T19:17:53.224Z,38.33
2019-04-16T19:20:21.867Z,37.57
2019-04-16T19:22:50.755Z,38.20
2019-04-16T19:25:19.547Z,38.13
2019-04-16T19:27:49.131Z,37.87
2019-04-16T19:30:17.949Z,38.53
2019-04-16T19:32:46.683Z,39.47
2019-04-16T19:35:18.227Z,41.30
2019-04-16T19:37:45.975Z,43.33
2019-04-16T19:40:16.062Z,41.93
2019-04-16T19:42:44.948Z,44.40
2019-04-16T19:45:13.703Z,43.67
2019-04-16T19:47:42.389Z,47.03
2019-04-16T19:50:11.155Z,46.43
2019-04-16T19:52:39.858Z,46.77
2019-04-16T19:55:12.057Z,50.17
2019-04-16T19:57:39.875Z,45.57
2019-04-16T20:00:08.696Z,48.13
2019-04-16T20:02:37.355Z,47.07
2019-04-16T20:05:06.766Z,53.03
2019-04-16T20:07:35.444Z,49.23
2019-04-16T20:10:05.589Z,53.57
2019-04-16T20:12:34.627Z,53.57
2019-04-16T20:15:07.973Z,52.93
2019-04-16T20:17:33.711Z,52.70
2019-04-16T20:20:02.716Z,55.93
2019-04-16T20:22:31.455Z,57.57
2019-04-16T20:25:00.219Z,52.83
2019-04-16T20:27:29.232Z,59.03
2019-04-16T20:29:57.944Z,55.07
2019-04-16T20:32:30.966Z,53.53
2019-04-16T20:34:58.686Z,52.77
2019-04-16T20:37:27.413Z,54.83
2019-04-16T20:39:56.109Z,55.97
2019-04-16T20:42:24.755Z,53.80
2019-04-16T20:44:53.376Z,52.93
2019-04-16T20:47:21.950Z,54.83
2019-04-16T20:49:50.969Z,56.93
2019-04-16T20:52:19.597Z,60.17
2019-04-16T20:54:49.890Z,57.07
2019-04-16T20:57:18.591Z,53.27
2019-04-16T20:59:47.639Z,58.53
2019-04-16T21:02:16.428Z,61.63
2019-04-16T21:04:45.431Z,62.60
2019-04-16T21:07:15.074Z,60.10
2019-04-16T21:09:44.141Z,60.30
2019-04-16T21:12:13.855Z,58.73
2019-04-16T21:14:42.603Z,58.43
2019-04-16T21:17:11.356Z,59.10
2019-04-16T21:19:47.812Z,61.20
2019-04-16T21:22:17.890Z,62.53
2019-04-16T21:24:48.132Z,59.40
2019-04-16T21:27:16.801Z,65.27
2019-04-16T21:29:45.757Z,59.17
2019-04-16T21:32:25.126Z,62.70
2019-04-16T21:34:58.682Z,62.40
2019-04-16T21:37:43.995Z,61.97
2019-04-16T21:40:13.015Z,63.77
2019-04-16T21:42:41.621Z,66.07
2019-04-16T21:45:10.406Z,68.57
2019-04-16T21:47:39.410Z,62.17
2019-04-16T21:50:08.139Z,64.57
2019-04-16T21:52:36.804Z,63.73
2019-04-16T21:55:07.312Z,64.63
2019-04-16T21:57:35.971Z,65.47
2019-04-16T22:00:08.790Z,59.03
2019-04-16T22:02:39.224Z,61.43
2019-04-16T22:05:10.164Z,66.90
2019-04-16T22:07:38.795Z,68.50
2019-04-16T22:10:09.011Z,71.77
2019-04-16T22:12:37.753Z,65.53
2019-04-16T22:15:07.401Z,67.50
2019-04-16T22:17:36.900Z,65.93
2019-04-16T22:20:07.249Z,67.10
2019-04-16T22:22:35.945Z,67.67
2019-04-16T22:25:06.266Z,74.13
2019-04-16T22:27:36.708Z,67.37
2019-04-16T22:30:07.967Z,67.27
2019-04-16T22:32:36.624Z,72.17
2019-04-16T22:35:06.547Z,70.13
2019-04-16T22:37:35.208Z,72.10
2019-04-16T22:40:23.601Z,74.90
2019-04-16T22:43:05.632Z,74.00
2019-04-16T22:45:34.577Z,81.30
2019-04-16T22:48:03.159Z,81.63
2019-04-16T22:50:34.660Z,85.80
2019-04-16T22:53:02.047Z,78.17
2019-04-16T22:55:30.649Z,80.90
2019-04-16T22:57:59.820Z,82.13
2019-04-16T23:00:34.168Z,76.83
2019-04-16T23:03:02.848Z,83.27
2019-04-16T23:05:31.995Z,77.70
2019-04-16T23:08:00.849Z,80.40
2019-04-16T23:10:29.686Z,79.80
2019-04-16T23:13:00.698Z,85.70
2019-04-16T23:15:29.134Z,75.80
2019-04-16T23:17:58.101Z,83.13
2019-04-16T23:20:29.676Z,81.43
2019-04-16T23:22:57.186Z,82.40
2019-04-16T23:25:27.433Z,85.87
2019-04-16T23:27:57.894Z,85.40
2019-04-16T23:30:26.707Z,88.93
2019-04-16T23:32:59.053Z,92.73
2019-04-16T23:35:26.168Z,91.03
2019-04-16T23:37:58.105Z,100.33
2019-04-16T23:40:25.507Z,103.27
2019-04-16T23:42:55.729Z,109.20
2019-04-16T23:45:31.167Z,103.90
2019-04-16T23:48:15.554Z,109.90
2019-04-16T23:50:47.663Z,112.63
2019-04-16T23:53:17.992Z,113.80
2019-04-16T23:55:57.281Z,105.10
2019-04-16T23:58:28.585Z,108.20
